Bei Facebook empfehlenBei Twitter postenGoogle plusPinterest

Das Wetter im Erzgebirge am 11.06.2015

Wetter und Klima am 11.06.2015 Holzhau im Erzgebirge (630m ü.NN)
Letzte gemessene Temperatur und Uhrzeit der Messung23:45:00 Uhr9.50 °C
Temperatur (Maximum / Höchstwert) und Uhrzeit der Messung16:15:00 Uhr20.80 °C
Temperatur (Minimum / Tiefstwert) und Uhrzeit der Messung02:30:005.10 °C
Errechneter Absolutwert der Temperaturschwankungen zwischen Tmin und Tmax des Tages15.70 K
Errechnete Tagesmitteltemperatur13.57500 °C
Gesamt - Niederschlag des Tages (in flüssiger Form)0.00 Liter / m²
Luftdruck (Maximum / Höchstwert) und Zeitpunkt der Messung01:00:00 Uhr1022.60 hPa
Luftdruck (Minimum / Tiefstwert) und Zeitpunkt der Messung23:30:00 Uhr1017.00 hPa
Errechneter Absolutwert der Luftdruckschwankungen des Tages5.60 hPa
Höchste gemessene Windgeschwindigkeit und Uhrzeit der Messung14:15:00 Uhr12.60 km/h
Errechnete Windhäufigkeit in Relation zu den Messwerten des Tages7.29167 %
Niedrigste Windkühle (Windchill) und Zeitpunkt der Messung02:30:00 Uhr5.10 °C
Taupunkt (Maximum / Höchstwert) und Uhrzeit der Messung16:00:00 Uhr12.10 °C
Taupunkt (Minimum / Tiefstwert) und Uhrzeit der Messung02:30:003.80 °C
Anzahl der automatisch eingelesenen Messwerte 96

Detaillierte Wetter- und Klima- Messwerte für den 11.06.2015 in Holzhau im Erzgebirge (630m ü.NN)
ZeitTemperaturLuftdruckRel. LuftfeuchteWindWindrichtungWindchillTaupunktNiederschlag l/m²
23:45:009.50 °C1017.10 hPa88.00 %7.60 °C 
23:30:009.70 °C1017.00 hPa87.00 %7.60 °C 
23:15:0010.10 °C1017.00 hPa87.00 %8.00 °C 
23:00:0010.40 °C1017.10 hPa86.00 %8.20 °C 
22:45:0010.70 °C1017.30 hPa86.00 %8.50 °C 
22:30:0010.90 °C1017.20 hPa85.00 %8.50 °C 
22:15:0011.30 °C1017.30 hPa84.00 %8.70 °C 
22:00:0011.50 °C1017.40 hPa83.00 %8.70 °C 
21:45:0011.90 °C1017.40 hPa82.00 %8.90 °C 
21:30:0012.40 °C1017.30 hPa81.00 %9.20 °C 
21:15:0013.00 °C1017.40 hPa79.00 %9.40 °C 
21:00:0013.90 °C1017.30 hPa77.00 %9.90 °C 
20:45:0014.90 °C1017.40 hPa75.00 %10.50 °C 
20:30:0015.90 °C1017.40 hPa73.00 %11.10 °C 
20:15:0016.50 °C1017.30 hPa71.00 %11.20 °C 
20:00:0016.60 °C1017.30 hPa70.00 %11.10 °C 
19:45:0017.00 °C1017.40 hPa69.00 %11.30 °C 
19:30:0017.30 °C1017.40 hPa66.00 %10.90 °C 
19:15:0017.80 °C1017.50 hPa65.00 %11.10 °C 
19:00:0018.30 °C1017.40 hPa62.00 %10.90 °C 
18:45:0018.90 °C1017.40 hPa60.00 %11.00 °C 
18:30:0019.50 °C1017.40 hPa58.00 %11.00 °C 
18:15:0020.10 °C1017.60 hPa58.00 %11.60 °C 
18:00:0020.20 °C1017.80 hPa58.00 %11.70 °C 
17:45:0019.30 °C1017.80 hPa60.00 %11.30 °C 
17:30:0019.00 °C1017.90 hPa60.00 %11.10 °C 
17:15:0018.90 °C1018.10 hPa59.00 %10.70 °C 
17:00:0018.60 °C1018.30 hPa59.00 %10.40 °C 
16:45:0019.00 °C1018.40 hPa57.00 %10.30 °C 
16:30:0020.60 °C1018.80 hPa55.00 %4.68 km/hSO20.60 °C11.20 °C 
16:15:0020.80 °C1018.80 hPa56.00 %8.64 km/hSSW21.60 °C11.70 °C 
16:00:0020.40 °C1019.00 hPa59.00 %12.10 °C 
15:45:0018.80 °C1019.10 hPa62.00 %11.40 °C 
15:30:0018.30 °C1019.40 hPa62.00 %10.90 °C 
15:15:0018.30 °C1019.50 hPa62.00 %10.90 °C 
15:00:0018.00 °C1019.50 hPa61.00 %10.40 °C 
14:45:0018.20 °C1019.50 hPa61.00 %10.60 °C 
14:30:0018.80 °C1019.40 hPa59.00 %10.60 °C 
14:15:0019.80 °C1019.60 hPa57.00 %12.60 km/hSO20.10 °C11.00 °C 
14:00:0018.80 °C1019.70 hPa61.00 %11.10 °C 
13:45:0018.20 °C1019.90 hPa61.00 %10.60 °C 
13:30:0018.30 °C1020.10 hPa59.00 %10.20 °C 
13:15:0018.60 °C1020.20 hPa59.00 %10.40 °C 
13:00:0019.20 °C1020.00 hPa58.00 %5.04 km/hSO20.20 °C10.70 °C 
12:45:0019.40 °C1020.00 hPa56.00 %10.40 °C 
12:30:0019.50 °C1020.10 hPa56.00 %10.50 °C 
12:15:0019.10 °C1020.20 hPa56.00 %10.10 °C 
12:00:0018.90 °C1020.30 hPa56.00 %5.40 km/hO19.80 °C9.90 °C 
11:45:0019.00 °C1020.30 hPa57.00 %7.56 km/hNNO19.60 °C10.30 °C 
11:30:0018.60 °C1020.30 hPa57.00 %9.90 °C 
11:15:0018.50 °C1020.50 hPa59.00 %10.30 °C 
11:00:0018.30 °C1020.60 hPa59.00 %10.20 °C 
10:45:0017.60 °C1020.60 hPa60.00 %9.80 °C 
10:30:0017.10 °C1020.60 hPa62.00 %9.80 °C 
10:15:0016.90 °C1020.70 hPa62.00 %9.60 °C 
10:00:0016.60 °C1020.70 hPa62.00 %10.44 km/hOSO16.50 °C9.30 °C 
09:45:0016.40 °C1020.60 hPa63.00 %9.30 °C 
09:30:0016.30 °C1020.90 hPa67.00 %10.20 °C 
09:15:0015.60 °C1020.90 hPa68.00 %9.70 °C 
09:00:0015.40 °C1020.70 hPa68.00 %9.50 °C 
08:45:0015.10 °C1020.70 hPa71.00 %9.90 °C 
08:30:0014.50 °C1020.80 hPa74.00 %9.90 °C 
08:15:0014.10 °C1020.70 hPa76.00 %9.90 °C 
08:00:0013.40 °C1020.70 hPa80.00 %10.00 °C 
07:45:0012.90 °C1020.90 hPa81.00 %9.70 °C 
07:30:0012.00 °C1020.70 hPa85.00 %9.60 °C 
07:15:0011.50 °C1020.70 hPa87.00 %9.40 °C 
07:00:0010.90 °C1021.00 hPa90.00 %9.30 °C 
06:45:0010.40 °C1020.90 hPa91.00 %9.00 °C 
06:30:009.80 °C1020.70 hPa92.00 %8.60 °C 
06:15:009.20 °C1021.00 hPa92.00 %8.00 °C 
06:00:008.60 °C1020.90 hPa92.00 %7.40 °C 
05:45:008.30 °C1021.00 hPa92.00 %7.10 °C 
05:30:007.90 °C1021.20 hPa92.00 %6.70 °C 
05:15:007.80 °C1021.20 hPa92.00 %6.60 °C 
05:00:007.60 °C1021.30 hPa92.00 %6.40 °C 
04:45:007.40 °C1021.30 hPa92.00 %6.20 °C 
04:30:007.00 °C1021.40 hPa92.00 %5.80 °C 
04:15:006.40 °C1021.70 hPa92.00 %5.20 °C 
04:00:005.90 °C1021.60 hPa92.00 %4.70 °C 
03:45:005.50 °C1021.70 hPa92.00 %4.30 °C 
03:30:005.30 °C1021.70 hPa92.00 %4.10 °C 
03:15:005.20 °C1021.80 hPa91.00 %3.90 °C 
03:00:005.20 °C1021.80 hPa91.00 %3.90 °C 
02:45:005.30 °C1021.90 hPa91.00 %4.00 °C 
02:30:005.10 °C1021.90 hPa91.00 %3.80 °C 
02:15:005.20 °C1022.00 hPa91.00 %3.90 °C 
02:00:005.30 °C1022.10 hPa91.00 %4.00 °C 
01:45:005.40 °C1022.10 hPa91.00 %4.10 °C 
01:30:005.60 °C1022.30 hPa90.00 %4.10 °C 
01:15:005.80 °C1022.40 hPa90.00 %4.30 °C 
01:00:006.10 °C1022.60 hPa90.00 %4.60 °C 
00:45:006.30 °C1022.50 hPa90.00 %4.80 °C 
00:30:006.40 °C1022.60 hPa89.00 %4.70 °C 
00:15:006.60 °C1022.50 hPa89.00 %4.90 °C 
00:00:006.80 °C1022.50 hPa89.00 %5.10 °C 

Permanenter Link zu dieser Seite: Wetter im Erzgebirge am 11.06.2015
Performance-Info: Die Erstellung der Seite / Statistik(en) / Tabelle(n) erforderte 5 Datenbankserver-Abfrage(n) und dauerte 98 Millisekunden. (Dieser Messwert ist von der Gesamt-Auslastung des Servers abhängig.)
Erzgebirge - Wetter | Erzgebirge - Wetter (Mobilgeräte) | Komplette Klimadatenbank